Time;durP1;ratioP1;P1;durP2;ratioP2;P2;SDS_P1;SDS_P2;PMS_P1;PMS_P2;Temp;Humidity;BMP_temperature;BMP_pressure;BME280_temperature;BME280_humidity;BME280_pressure;Samples;Min_cycle;Max_cycle;Signal;HPM_P1;HPM_P2
2021/11/12 00:12:34;;;;;;;;;72.80;58.40;;;;;9.40;63.59;101629.84;2086616;28;47373;-62
2021/11/12 00:13:38;;;;;;;;;69.40;54.20;;;;;9.37;63.72;101630.75;2092116;28;47177;-63
2021/11/12 00:14:49;;;;;;;;;73.60;56.80;;;;;9.37;63.43;101627.22;2092134;28;47385;-63
2021/11/12 00:15:53;;;;;;;;;71.40;57.60;;;;;9.36;63.46;101628.13;2087541;28;45543;-63
2021/11/12 00:16:55;;;;;;;;;73.20;58.60;;;;;9.36;63.47;101630.75;2091590;28;47241;-63
2021/11/12 00:17:55;;;;;;;;;66.60;53.40;;;;;9.35;63.49;101637.84;2092057;27;48029;-61
2021/11/12 00:18:56;;;;;;;;;74.00;57.50;;;;;9.34;63.65;101630.78;2091989;28;48072;-62
2021/11/12 00:19:58;;;;;;;;;72.75;56.75;;;;;9.34;63.66;101630.78;2091952;28;47066;-62
2021/11/12 00:21:01;;;;;;;;;74.20;59.60;;;;;9.34;63.51;101635.19;2091828;28;47072;-62
2021/11/12 00:22:02;;;;;;;;;72.60;57.80;;;;;9.33;63.52;101629.00;2090191;28;47453;-62
2021/11/12 00:23:03;;;;;;;;;69.80;55.60;;;;;9.33;63.48;101636.06;2091687;28;48370;-62
2021/11/12 00:24:03;;;;;;;;;72.00;58.25;;;;;9.32;63.22;101640.50;2099803;27;45286;-63
2021/11/12 00:25:04;;;;;;;;;69.00;55.50;;;;;9.31;63.17;101630.78;2096187;28;47360;-62
2021/11/12 00:26:06;;;;;;;;;75.00;60.75;;;;;9.31;63.48;101638.72;2092003;27;45224;-63
2021/11/12 00:27:08;;;;;;;;;68.40;55.80;;;;;9.30;63.21;101630.78;2091430;28;49962;-62
2021/11/12 00:28:11;;;;;;;;;71.60;56.60;;;;;9.28;63.16;101633.44;2091454;28;48370;-62
2021/11/12 00:29:12;;;;;;;;;72.20;57.60;;;;;9.28;63.17;101635.22;2083586;28;48326;-62
2021/11/12 00:30:30;;;;;;;;;64.75;52.25;;;;;9.27;63.29;101636.06;2090862;28;48144;-62
2021/11/12 00:33:25;;;;;;;;;70.20;55.60;;;;;9.23;63.09;101635.19;2090825;28;47281;-63
2021/11/12 00:38:21;;;;;;;;;71.00;56.50;;;;;9.19;63.22;101621.97;2091821;27;48060;-61
2021/11/12 00:42:08;;;;;;;;;71.20;57.00;;;;;9.15;63.39;101613.16;2091796;27;48238;-62
2021/11/12 00:43:15;;;;;;;;;75.60;58.40;;;;;9.13;63.33;101615.78;2091810;28;48179;-61
2021/11/12 00:44:38;;;;;;;;;72.40;58.80;;;;;9.11;63.44;101608.72;2095014;27;47417;-62
2021/11/12 00:45:51;;;;;;;;;66.60;53.80;;;;;9.09;63.42;101607.84;2097239;27;47334;-62
2021/11/12 00:48:09;;;;;;;;;69.00;55.40;;;;;9.07;63.35;101609.63;2083407;28;45627;-62
2021/11/12 00:49:13;;;;;;;;;70.00;54.60;;;;;9.05;63.43;101619.34;2092014;28;47319;-61
2021/11/12 00:51:25;;;;;;;;;71.20;57.00;;;;;9.04;63.49;101628.19;2094799;28;48352;-61
2021/11/12 00:53:41;;;;;;;;;67.40;54.60;;;;;9.04;63.41;101625.53;2096094;28;46253;-62
2021/11/12 00:54:06;;;;;;;;;71.40;57.40;;;;;9.02;63.30;101632.56;2095980;28;46924;-61
2021/11/12 00:55:07;;;;;;;;;72.20;56.20;;;;;9.01;63.71;101626.38;2095614;27;47334;-60
2021/11/12 00:56:08;;;;;;;;;68.00;54.40;;;;;9.01;63.72;101625.50;2093694;27;47198;-60
2021/11/12 00:57:09;;;;;;;;;71.00;56.00;;;;;9.01;63.62;101628.16;2091866;28;48141;-60
2021/11/12 00:58:14;;;;;;;;;70.80;57.00;;;;;9.00;63.73;101624.63;2096567;28;48568;-61
2021/11/12 00:59:16;;;;;;;;;68.80;52.60;;;;;8.99;63.56;101609.63;2092299;28;47512;-61
2021/11/12 01:00:18;;;;;;;;;66.80;52.40;;;;;9.00;63.80;101619.34;2095475;27;47707;-63
2021/11/12 01:01:19;;;;;;;;;70.40;56.20;;;;;8.99;63.80;101616.69;2096183;28;47225;-61
2021/11/12 01:02:19;;;;;;;;;65.20;53.20;;;;;8.99;63.64;101620.22;2091504;27;48338;-61
2021/11/12 01:03:21;;;;;;;;;68.25;55.50;;;;;8.98;63.73;101621.09;2094680;28;48466;-60
2021/11/12 01:04:22;;;;;;;;;67.60;52.00;;;;;8.98;63.48;101621.09;2090830;28;47391;-59
2021/11/12 01:05:24;;;;;;;;;63.20;51.80;;;;;8.98;63.55;101625.53;2091673;28;48159;-60
2021/11/12 01:06:25;;;;;;;;;69.40;54.80;;;;;8.96;63.67;101622.00;2092011;28;47164;-60
2021/11/12 01:07:27;;;;;;;;;65.00;51.40;;;;;8.94;63.50;101629.94;2092739;28;48203;-60
2021/11/12 01:08:27;;;;;;;;;71.20;55.40;;;;;8.93;63.60;101622.00;2092937;27;48575;-60
2021/11/12 01:09:28;;;;;;;;;69.25;54.25;;;;;8.92;63.80;101626.41;2092331;28;47276;-60
2021/11/12 01:10:29;;;;;;;;;73.25;56.00;;;;;8.92;63.80;101622.88;2091885;28;46417;-60
2021/11/12 01:11:30;;;;;;;;;68.80;55.60;;;;;8.90;63.85;101622.91;2088773;27;47221;-60
2021/11/12 01:12:31;;;;;;;;;63.60;52.20;;;;;8.90;63.66;101622.91;2090097;28;45376;-60
2021/11/12 01:13:32;;;;;;;;;71.25;53.25;;;;;8.89;63.68;101621.09;2091027;28;47122;-60
2021/11/12 01:14:33;;;;;;;;;71.20;55.20;;;;;8.88;63.78;101622.00;2087798;28;46393;-60
2021/11/12 01:15:34;;;;;;;;;65.20;53.20;;;;;8.87;63.68;101614.06;2090289;28;47204;-60
2021/11/12 01:16:35;;;;;;;;;68.75;54.00;;;;;8.87;63.67;101620.22;2084222;28;47657;-60
2021/11/12 01:17:36;;;;;;;;;62.40;50.40;;;;;8.87;63.89;101619.34;2086248;28;47241;-64
2021/11/12 01:18:36;;;;;;;;;67.00;54.50;;;;;8.85;63.97;101614.06;2083381;28;46269;-61
2021/11/12 01:19:37;;;;;;;;;66.75;52.50;;;;;8.85;63.83;101608.75;2091200;28;47141;-61
2021/11/12 01:20:39;;;;;;;;;67.25;54.50;;;;;8.84;63.86;101613.19;2090596;28;47291;-62
2021/11/12 01:21:42;;;;;;;;;68.80;53.80;;;;;8.84;63.97;101605.22;2088919;28;46650;-62
2021/11/12 01:22:43;;;;;;;;;64.40;51.60;;;;;8.84;63.94;101599.06;2092545;28;48723;-61
2021/11/12 01:23:49;;;;;;;;;65.40;53.40;;;;;8.85;63.75;101604.34;2090758;28;48293;-60
2021/11/12 01:24:50;;;;;;;;;63.80;50.60;;;;;8.84;63.71;101599.94;2091155;28;48214;-62
2021/11/12 01:25:51;;;;;;;;;68.60;54.40;;;;;8.83;63.79;101597.28;2090769;28;48452;-61
2021/11/12 01:26:51;;;;;;;;;67.00;52.50;;;;;8.83;63.57;101600.81;2091155;28;47101;-62
2021/11/12 01:27:52;;;;;;;;;69.75;53.50;;;;;8.82;63.56;101596.41;2091341;28;47349;-61
2021/11/12 01:28:53;;;;;;;;;69.00;53.20;;;;;8.82;63.71;101596.41;2091001;28;47044;-61
2021/11/12 01:29:54;;;;;;;;;66.50;52.25;;;;;8.80;63.32;101597.31;2099282;28;47252;-61
2021/11/12 01:30:55;;;;;;;;;67.80;55.00;;;;;8.80;63.71;101606.13;2099467;27;47151;-61
2021/11/12 01:31:56;;;;;;;;;69.75;55.25;;;;;8.77;63.57;101600.84;2080392;28;45101;-61
2021/11/12 01:32:57;;;;;;;;;69.60;54.20;;;;;8.77;63.62;101599.97;2083255;28;47240;-62
2021/11/12 01:34:06;;;;;;;;;68.75;53.50;;;;;8.76;63.53;101596.41;2083429;28;47211;-62
2021/11/12 01:35:09;;;;;;;;;68.80;54.20;;;;;8.76;63.55;101595.53;2085547;28;47367;-62
2021/11/12 01:37:18;;;;;;;;;68.00;54.40;;;;;8.76;63.72;101595.53;2084896;28;47307;-61
2021/11/12 01:38:19;;;;;;;;;70.60;54.40;;;;;8.75;63.63;101597.28;2091415;28;48161;-61
2021/11/12 01:39:21;;;;;;;;;67.80;54.20;;;;;8.73;63.64;101591.13;2090246;28;47215;-61
2021/11/12 01:40:24;;;;;;;;;65.80;52.00;;;;;8.72;63.68;101596.41;2084181;28;48660;-61
2021/11/12 01:41:25;;;;;;;;;63.80;51.80;;;;;8.71;63.69;101584.06;2084147;28;47181;-61
2021/11/12 01:42:47;;;;;;;;;67.20;53.40;;;;;8.72;63.67;101591.13;2091593;28;47250;-60
2021/11/12 01:43:53;;;;;;;;;64.60;50.00;;;;;8.70;63.43;101583.19;2089762;28;45246;-60
2021/11/12 01:45:04;;;;;;;;;64.60;51.60;;;;;8.69;63.43;101588.47;2084765;28;47289;-61
2021/11/12 01:49:44;;;;;;;;;66.20;52.60;;;;;8.63;63.85;101585.81;2099442;28;45441;-60
2021/11/12 01:50:54;;;;;;;;;60.60;50.00;;;;;8.62;63.37;101600.81;2096538;27;47283;-61
2021/11/12 01:52:07;;;;;;;;;61.60;50.40;;;;;8.61;63.59;101599.06;2085137;28;48876;-60
2021/11/12 01:53:10;;;;;;;;;60.80;47.40;;;;;8.61;63.48;101598.16;2090933;28;47040;-59
2021/11/12 01:55:38;;;;;;;;;63.60;51.60;;;;;8.58;63.46;101599.06;2087377;28;47324;-61
2021/11/12 02:00:17;;;;;;;;;58.25;49.00;;;;;8.54;63.48;101584.97;2083221;28;46915;-60
2021/11/12 02:01:20;;;;;;;;;60.60;50.20;;;;;8.53;63.35;101588.47;2089383;28;48381;-60
2021/11/12 02:02:22;;;;;;;;;61.00;49.60;;;;;8.51;63.45;101582.31;2091717;28;47268;-60
2021/11/12 02:03:23;;;;;;;;;63.20;50.60;;;;;8.51;63.67;101582.31;2091170;28;47596;-60
2021/11/12 02:04:27;;;;;;;;;59.60;49.20;;;;;8.51;63.36;101582.31;2091708;28;46258;-60
2021/11/12 02:05:28;;;;;;;;;66.80;51.60;;;;;8.51;63.58;101584.97;2082349;28;47367;-59
2021/11/12 02:06:30;;;;;;;;;58.00;47.00;;;;;8.50;63.49;101577.88;2078188;28;45775;-61
2021/11/12 02:07:34;;;;;;;;;63.20;51.40;;;;;8.49;63.57;101570.81;2082148;28;46311;-61
2021/11/12 02:08:35;;;;;;;;;61.80;49.80;;;;;8.50;63.56;101567.28;2089817;28;47393;-61
2021/11/12 02:09:36;;;;;;;;;64.25;51.75;;;;;8.49;63.37;101570.81;2085606;28;48305;-60
2021/11/12 02:10:37;;;;;;;;;62.50;49.25;;;;;8.48;63.42;101563.78;2091614;28;47368;-61
2021/11/12 02:11:38;;;;;;;;;60.25;48.50;;;;;8.49;63.37;101562.88;2088329;28;48415;-61
2021/11/12 02:12:59;;;;;;;;;57.40;48.40;;;;;8.48;63.29;101574.34;2085959;28;47835;-61
2021/11/12 02:14:00;;;;;;;;;56.80;45.40;;;;;8.47;63.39;101569.06;2087630;28;47298;-61
2021/11/12 02:15:01;;;;;;;;;62.00;49.40;;;;;8.46;63.41;101559.38;2091291;28;48464;-61
2021/11/12 02:16:05;;;;;;;;;62.25;50.75;;;;;8.46;63.10;101568.19;2091091;28;48170;-61
2021/11/12 02:17:13;;;;;;;;;56.20;46.40;;;;;8.44;63.33;101562.03;2088956;28;46239;-61
2021/11/12 02:18:16;;;;;;;;;59.60;47.00;;;;;8.45;63.35;101557.59;2090748;28;47397;-61
2021/11/12 02:19:16;;;;;;;;;61.80;48.80;;;;;8.45;63.42;101563.78;2090614;28;47504;-60
2021/11/12 02:20:26;;;;;;;;;61.25;48.25;;;;;8.45;63.31;101568.19;2090772;28;47284;-60
2021/11/12 02:21:32;;;;;;;;;61.40;50.40;;;;;8.45;63.34;101563.78;2086532;28;48598;-61
2021/11/12 02:22:36;;;;;;;;;62.60;50.40;;;;;8.43;63.26;101554.97;2091589;28;48246;-61
2021/11/12 02:23:51;;;;;;;;;60.20;49.20;;;;;8.43;63.02;101562.03;2097684;28;48329;-59
2021/11/12 02:24:55;;;;;;;;;64.00;50.60;;;;;8.40;63.40;101557.63;2099569;27;47756;-59
2021/11/12 02:25:57;;;;;;;;;45.60;40.80;;;;;8.39;63.23;101547.91;2101312;27;47032;-59
2021/11/12 02:26:59;;;;;;;;;59.60;48.00;;;;;8.39;63.35;101554.97;2098959;28;47582;-59
2021/11/12 02:28:08;;;;;;;;;58.80;48.20;;;;;8.40;63.41;101554.09;2082808;28;48255;-59
2021/11/12 02:29:11;;;;;;;;;64.00;50.40;;;;;8.38;63.27;101554.06;2086357;28;47862;-60
2021/11/12 02:30:21;;;;;;;;;57.00;47.60;;;;;8.39;63.49;101554.97;2091000;28;47430;-59
2021/11/12 02:31:23;;;;;;;;;57.80;47.00;;;;;8.39;63.25;101555.84;2091233;28;47288;-59
2021/11/12 02:32:27;;;;;;;;;54.60;46.60;;;;;8.39;63.32;101562.91;2091289;28;47343;-59
2021/11/12 02:33:27;;;;;;;;;51.80;44.00;;;;;8.38;63.39;101556.72;2091087;28;46167;-60
2021/11/12 02:34:28;;;;;;;;;62.25;49.75;;;;;8.38;63.44;101556.72;2091361;28;45570;-60
2021/11/12 02:35:30;;;;;;;;;57.75;48.75;;;;;8.39;63.38;101557.63;2090479;28;46152;-60
2021/11/12 02:36:31;;;;;;;;;56.40;45.60;;;;;8.39;63.48;101555.84;2090693;28;48208;-60
2021/11/12 02:37:34;;;;;;;;;60.00;48.40;;;;;8.40;63.37;101557.63;2088867;28;46198;-60
2021/11/12 02:38:38;;;;;;;;;56.80;47.40;;;;;8.40;63.43;101562.03;2085206;28;47432;-60
2021/11/12 02:39:40;;;;;;;;;55.60;46.40;;;;;8.40;63.42;101556.75;2098446;28;48888;-60
2021/11/12 02:40:41;;;;;;;;;61.40;47.40;;;;;8.40;63.33;101549.69;2098689;28;46273;-60
2021/11/12 02:41:43;;;;;;;;;51.75;41.00;;;;;8.40;63.15;101546.16;2091087;28;45239;-60
2021/11/12 02:42:43;;;;;;;;;60.00;48.40;;;;;8.39;63.38;101540.00;2091429;28;47531;-60
2021/11/12 02:43:47;;;;;;;;;59.00;48.75;;;;;8.39;63.33;101544.41;2086039;28;48122;-61
2021/11/12 02:44:48;;;;;;;;;55.80;47.40;;;;;8.39;63.61;101545.28;2091067;27;47182;-60
2021/11/12 02:45:50;;;;;;;;;58.50;47.50;;;;;8.40;63.01;101560.25;2091024;28;45436;-60
2021/11/12 02:46:50;;;;;;;;;57.20;47.80;;;;;8.39;63.08;101542.63;2092691;28;47477;-60
2021/11/12 02:47:51;;;;;;;;;49.50;40.75;;;;;8.39;63.20;101545.28;2091104;27;47221;-60
2021/11/12 02:48:53;;;;;;;;;57.00;47.00;;;;;8.40;63.29;101549.69;2095878;27;47273;-60
2021/11/12 02:49:56;;;;;;;;;55.60;46.40;;;;;8.39;63.21;101540.00;2093850;28;47232;-60
2021/11/12 02:50:57;;;;;;;;;60.80;49.20;;;;;8.38;63.03;101554.06;2091656;28;46969;-60
2021/11/12 02:51:58;;;;;;;;;55.75;47.00;;;;;8.38;63.23;101545.25;2095250;28;47074;-60
2021/11/12 02:53:03;;;;;;;;;58.75;48.00;;;;;8.37;63.04;101543.47;2092535;28;47433;-61
2021/11/12 02:54:08;;;;;;;;;55.80;46.00;;;;;8.37;62.98;101539.06;2092343;27;47391;-60
2021/11/12 02:55:08;;;;;;;;;58.20;48.00;;;;;8.36;63.24;101550.53;2094847;28;47466;-60
2021/11/12 02:56:25;;;;;;;;;54.25;44.75;;;;;8.36;63.01;101545.25;2091225;28;46122;-61
2021/11/12 02:57:28;;;;;;;;;58.40;48.20;;;;;8.35;62.92;101547.91;2090905;28;47318;-60
2021/11/12 02:58:30;;;;;;;;;53.60;44.40;;;;;8.35;63.20;101547.91;2096160;28;48276;-60
2021/11/12 02:59:31;;;;;;;;;60.20;49.00;;;;;8.35;63.01;101553.19;2086992;28;46313;-61
2021/11/12 03:00:32;;;;;;;;;55.75;46.50;;;;;8.33;63.15;101545.22;2085303;28;48218;-60
2021/11/12 03:01:36;;;;;;;;;55.20;46.40;;;;;8.32;63.06;101548.75;2088317;27;48260;-60
2021/11/12 03:02:37;;;;;;;;;58.80;47.40;;;;;8.31;63.06;101547.00;2093329;28;47371;-60
2021/11/12 03:03:38;;;;;;;;;56.00;46.40;;;;;8.30;62.94;101547.88;2089572;28;48726;-60
2021/11/12 03:04:38;;;;;;;;;59.60;48.00;;;;;8.30;63.09;101542.59;2092394;27;47602;-60
2021/11/12 03:05:39;;;;;;;;;55.75;45.50;;;;;8.29;63.33;101545.22;2099261;27;45373;-60
2021/11/12 03:06:41;;;;;;;;;55.50;44.75;;;;;8.30;63.09;101541.69;2091345;28;47497;-60
2021/11/12 03:07:42;;;;;;;;;54.00;44.60;;;;;8.28;63.04;101541.72;2091171;28;47134;-60
2021/11/12 03:08:43;;;;;;;;;56.50;47.50;;;;;8.28;63.01;101549.63;2090396;28;47368;-60
2021/11/12 03:09:43;;;;;;;;;54.75;45.75;;;;;8.28;62.92;101541.72;2095363;28;47614;-60
2021/11/12 03:10:44;;;;;;;;;52.50;44.50;;;;;8.27;63.08;101540.81;2100940;27;47039;-60
2021/11/12 03:11:44;;;;;;;;;60.25;50.00;;;;;8.26;63.11;101538.19;2095293;28;47007;-60
2021/11/12 03:12:45;;;;;;;;;55.50;46.25;;;;;8.25;63.04;101539.91;2086733;28;47092;-60
2021/11/12 03:13:46;;;;;;;;;52.75;44.00;;;;;8.26;63.15;101540.81;2091215;28;47786;-60
2021/11/12 03:14:48;;;;;;;;;59.00;48.75;;;;;8.26;62.90;101530.25;2098877;28;47186;-60
2021/11/12 03:15:48;;;;;;;;;55.80;45.40;;;;;8.26;63.24;101538.19;2096211;28;47403;-60
2021/11/12 03:16:50;;;;;;;;;57.25;46.00;;;;;8.25;63.04;101539.91;2083522;28;47152;-60
2021/11/12 03:17:53;;;;;;;;;60.60;48.60;;;;;8.24;63.00;101538.16;2098460;28;48367;-60
2021/11/12 03:18:55;;;;;;;;;54.60;44.40;;;;;8.24;62.95;101537.28;2096589;27;47344;-61
2021/11/12 03:19:56;;;;;;;;;55.00;47.20;;;;;8.23;63.12;101544.31;2098110;27;48198;-60
2021/11/12 03:20:57;;;;;;;;;55.75;46.75;;;;;8.23;63.20;101543.44;2097881;28;47103;-60
2021/11/12 03:22:04;;;;;;;;;53.20;44.20;;;;;8.22;63.10;101537.28;2089244;28;48263;-64
2021/11/12 03:23:10;;;;;;;;;59.00;48.80;;;;;8.21;63.03;101540.81;2098929;27;46317;-60
2021/11/12 03:24:21;;;;;;;;;54.80;45.40;;;;;8.23;63.05;101544.31;2097984;28;48479;-60
2021/11/12 03:25:45;;;;;;;;;54.40;44.60;;;;;8.22;63.00;101537.28;2093072;28;48259;-59
2021/11/12 03:26:56;;;;;;;;;45.80;40.80;;;;;8.21;63.01;101540.81;2091773;28;47498;-59
2021/11/12 03:29:39;;;;;;;;;57.00;46.20;;;;;8.19;63.19;101534.63;2099122;28;48130;-60
2021/11/12 04:00:54;;;;;;;;;46.80;39.20;;;;;7.87;63.20;101516.06;2092338;28;48334;-60
2021/11/12 04:03:42;;;;;;;;;49.60;41.60;;;;;7.87;63.13;101510.78;2082014;28;47809;-61
2021/11/12 04:18:32;;;;;;;;;45.80;40.20;;;;;7.83;63.01;101498.44;2092352;28;48292;-61
2021/11/12 04:21:07;;;;;;;;;43.40;37.80;;;;;7.83;62.78;101495.81;2092254;28;47423;-61
2021/11/12 05:03:24;;;;;;;;;50.40;38.80;;;;;7.64;62.98;101443.81;2084569;28;48257;-60
2021/11/12 05:09:55;;;;;;;;;53.00;42.40;;;;;7.66;62.80;101432.38;2088556;28;45650;-60
2021/11/12 05:44:30;;;;;;;;;53.00;42.80;;;;;7.56;63.15;101390.09;2088178;28;46317;-60
2021/11/12 05:45:43;;;;;;;;;50.60;42.40;;;;;7.54;63.43;101395.38;2090718;28;46653;-60
2021/11/12 05:46:51;;;;;;;;;48.40;40.20;;;;;7.56;63.59;101392.72;2083249;28;47925;-60
2021/11/12 05:55:37;;;;;;;;;47.20;42.00;;;;;7.61;63.25;101397.13;2091116;28;47396;-60
2021/11/12 05:56:40;;;;;;;;;51.20;41.40;;;;;7.61;63.53;101391.84;2091701;28;46198;-61
2021/11/12 05:57:41;;;;;;;;;51.40;42.20;;;;;7.63;63.61;101394.53;2088776;28;46816;-60
2021/11/12 05:58:41;;;;;;;;;45.25;40.50;;;;;7.64;63.36;101391.88;2087693;28;48124;-61
2021/11/12 05:59:43;;;;;;;;;45.25;39.50;;;;;7.66;63.66;101386.59;2086134;28;48165;-61
2021/11/12 06:00:44;;;;;;;;;44.80;40.60;;;;;7.66;63.51;101376.03;2080410;28;47292;-60
2021/11/12 06:01:46;;;;;;;;;48.25;39.00;;;;;7.68;63.52;101374.25;2085729;28;47894;-60
2021/11/12 06:02:46;;;;;;;;;51.80;40.80;;;;;7.69;63.58;101370.72;2079502;28;47483;-61
2021/11/12 06:03:47;;;;;;;;;53.50;43.00;;;;;7.70;63.26;101368.97;2089026;28;47049;-60
2021/11/12 06:04:48;;;;;;;;;43.75;39.00;;;;;7.71;63.49;101362.81;2083929;28;47605;-60
2021/11/12 06:05:48;;;;;;;;;53.00;40.40;;;;;7.71;63.31;101363.69;2086603;28;45461;-60
2021/11/12 06:06:49;;;;;;;;;43.75;40.25;;;;;7.71;63.33;101365.44;2088197;28;47574;-64
2021/11/12 06:07:50;;;;;;;;;55.00;43.20;;;;;7.71;63.11;101374.25;2085145;28;47485;-61
2021/11/12 06:08:51;;;;;;;;;51.75;41.00;;;;;7.71;63.26;101376.00;2085036;28;47268;-60
2021/11/12 06:09:52;;;;;;;;;53.40;44.40;;;;;7.70;63.39;101376.91;2090072;28;46939;-60
2021/11/12 06:10:52;;;;;;;;;44.00;38.00;;;;;7.70;63.38;101375.13;2091025;28;46105;-60
2021/11/12 06:11:53;;;;;;;;;49.00;40.00;;;;;7.71;63.42;101371.59;2087392;28;45600;-60
2021/11/12 06:12:54;;;;;;;;;45.20;36.60;;;;;7.73;63.12;101371.59;2086287;28;48420;-59
2021/11/12 06:13:58;;;;;;;;;40.50;38.00;;;;;7.74;63.18;101381.28;2086627;28;47160;-60
2021/11/12 06:14:58;;;;;;;;;45.80;38.60;;;;;7.75;63.07;101383.97;2087540;28;47265;-60
2021/11/12 06:15:59;;;;;;;;;45.25;40.50;;;;;7.74;63.11;101379.53;2089236;28;47509;-59
2021/11/12 06:16:59;;;;;;;;;47.25;40.75;;;;;7.75;63.28;101380.41;2087477;28;47341;-61
2021/11/12 06:18:01;;;;;;;;;46.00;39.75;;;;;7.74;63.01;101384.81;2086447;27;48204;-60
2021/11/12 06:19:03;;;;;;;;;45.00;39.00;;;;;7.74;63.46;101381.28;2083931;28;48638;-60
2021/11/12 06:20:05;;;;;;;;;46.40;38.60;;;;;7.75;63.19;101383.03;2088664;28;48282;-60
2021/11/12 06:21:05;;;;;;;;;48.40;40.40;;;;;7.75;62.96;101383.03;2091768;28;48421;-60
2021/11/12 06:22:06;;;;;;;;;44.50;38.75;;;;;7.75;63.26;101381.31;2088665;28;48363;-60
2021/11/12 06:23:07;;;;;;;;;46.00;37.00;;;;;7.76;63.36;101376.91;2083836;28;47536;-60
2021/11/12 06:24:08;;;;;;;;;45.00;37.75;;;;;7.75;63.16;101377.75;2088984;28;45475;-60
2021/11/12 06:25:09;;;;;;;;;41.20;37.60;;;;;7.75;63.16;101378.69;2088809;28;47611;-60
2021/11/12 06:26:10;;;;;;;;;43.20;38.20;;;;;7.77;63.13;101378.69;2090411;28;45403;-60
2021/11/12 06:27:10;;;;;;;;;36.60;32.80;;;;;7.76;62.93;101375.16;2089314;28;47307;-60
2021/11/12 06:28:11;;;;;;;;;45.00;38.25;;;;;7.75;62.86;101370.75;2090494;28;47422;-61
2021/11/12 06:29:12;;;;;;;;;45.00;38.75;;;;;7.75;63.14;101370.75;2084302;28;48268;-60
2021/11/12 06:30:12;;;;;;;;;44.40;37.40;;;;;7.75;62.85;101364.56;2090048;28;48484;-60
2021/11/12 06:31:13;;;;;;;;;46.50;38.75;;;;;7.75;63.16;101367.19;2089262;28;47256;-60
2021/11/12 06:32:14;;;;;;;;;41.75;38.00;;;;;7.75;63.30;101367.19;2091114;28;47326;-60
2021/11/12 06:33:15;;;;;;;;;44.40;37.80;;;;;7.75;62.86;101373.41;2085973;28;46956;-60
2021/11/12 06:34:15;;;;;;;;;36.75;34.00;;;;;7.75;63.11;101364.56;2083664;28;46918;-60
2021/11/12 06:35:16;;;;;;;;;37.00;34.50;;;;;7.75;63.04;101373.41;2090661;28;47402;-60
2021/11/12 06:36:19;;;;;;;;;34.00;34.00;;;;;7.75;62.92;101381.31;2089014;28;48015;-60
2021/11/12 06:37:19;;;;;;;;;36.00;35.20;;;;;7.74;62.91;101384.81;2083101;28;47401;-60
2021/11/12 06:38:24;;;;;;;;;38.75;34.25;;;;;7.74;62.95;101391.84;2086235;28;47099;-60
2021/11/12 06:39:24;;;;;;;;;34.20;33.00;;;;;7.74;62.79;101389.22;2085151;28;48045;-60
2021/11/12 06:40:25;;;;;;;;;33.25;33.25;;;;;7.73;62.96;101390.97;2091234;27;47989;-62
2021/11/12 06:43:00;;;;;;;;;41.40;36.60;;;;;7.73;62.87;101382.16;2091101;28;47078;-60
2021/11/12 06:44:25;;;;;;;;;37.40;33.80;;;;;7.72;62.78;101381.28;2089896;28;45574;-61
2021/11/12 06:49:32;;;;;;;;;44.40;39.00;;;;;7.71;62.94;101378.66;2095183;28;47228;-60
2021/11/12 06:50:32;;;;;;;;;39.00;34.20;;;;;7.71;62.92;101368.97;2088408;28;46310;-60
2021/11/12 06:51:34;;;;;;;;;40.75;36.50;;;;;7.70;62.95;101372.50;2095917;27;45558;-61
2021/11/12 06:52:36;;;;;;;;;39.40;33.00;;;;;7.70;62.71;101366.31;2091032;28;47223;-60
2021/11/12 06:53:37;;;;;;;;;38.00;35.20;;;;;7.70;62.98;101366.31;2090970;28;48284;-60
2021/11/12 06:54:38;;;;;;;;;39.33;36.00;;;;;7.69;63.16;101362.81;2090722;28;47668;-60
2021/11/12 06:55:38;;;;;;;;;35.00;34.00;;;;;7.68;63.00;101355.75;2087040;28;46710;-60
2021/11/12 06:56:39;;;;;;;;;38.50;33.75;;;;;7.69;63.18;101357.53;2092631;28;45824;-60
2021/11/12 06:57:41;;;;;;;;;25.00;24.75;;;;;7.70;63.16;101355.75;2090477;28;47299;-61
2021/11/12 06:58:41;;;;;;;;;32.20;30.80;;;;;7.70;62.93;101355.75;2093658;27;48528;-60
2021/11/12 06:59:43;;;;;;;;;30.25;27.75;;;;;7.70;63.16;101355.75;2086494;28;48047;-60
2021/11/12 07:00:45;;;;;;;;;34.40;29.60;;;;;7.69;63.34;101357.53;2087863;28;47673;-61
2021/11/12 07:01:49;;;;;;;;;35.00;32.60;;;;;7.70;62.94;101363.69;2089273;28;48056;-60
2021/11/12 07:02:51;;;;;;;;;34.60;30.60;;;;;7.71;62.97;101355.75;2088253;28;47478;-60
2021/11/12 07:03:52;;;;;;;;;34.60;31.80;;;;;7.70;62.92;101361.91;2081680;28;46234;-61
2021/11/12 07:04:52;;;;;;;;;32.40;29.40;;;;;7.70;63.33;101368.97;2086854;28;47087;-60
2021/11/12 07:05:53;;;;;;;;;30.75;28.50;;;;;7.70;63.14;101364.56;2091842;28;47562;-60
2021/11/12 07:06:54;;;;;;;;;42.00;34.75;;;;;7.68;62.70;101361.03;2090756;28;48319;-61
2021/11/12 07:07:54;;;;;;;;;30.50;28.00;;;;;7.69;62.89;101368.09;2091980;28;45460;-60
2021/11/12 07:08:54;;;;;;;;;30.25;29.00;;;;;7.69;63.17;101362.81;2084113;28;48433;-60
2021/11/12 07:09:55;;;;;;;;;29.25;25.00;;;;;7.69;63.16;101368.09;2093155;28;48243;-60
2021/11/12 07:10:57;;;;;;;;;33.00;31.00;;;;;7.70;63.08;101371.59;2086583;28;48282;-61
2021/11/12 07:11:58;;;;;;;;;30.60;29.40;;;;;7.69;62.88;101365.44;2088156;28;47380;-61
2021/11/12 07:12:58;;;;;;;;;33.00;31.00;;;;;7.71;63.17;101373.38;2097231;28;47114;-61
2021/11/12 07:13:59;;;;;;;;;35.50;33.50;;;;;7.70;63.15;101376.91;2091376;28;45512;-61
2021/11/12 07:15:00;;;;;;;;;30.60;28.40;;;;;7.71;63.16;101376.88;2084655;28;46235;-59
2021/11/12 07:16:00;;;;;;;;;31.50;27.75;;;;;7.72;63.31;101383.94;2090930;28;47068;-60
2021/11/12 07:17:02;;;;;;;;;25.25;25.25;;;;;7.71;63.18;101376.88;2089953;28;47163;-60
2021/11/12 07:18:03;;;;;;;;;31.00;29.20;;;;;7.72;63.12;101386.56;2090790;28;46108;-61
2021/11/12 07:19:04;;;;;;;;;33.20;28.60;;;;;7.72;63.17;101383.94;2090302;28;47336;-60
2021/11/12 07:20:05;;;;;;;;;34.25;29.75;;;;;7.74;63.25;101379.53;2095803;27;47329;-60
2021/11/12 07:21:05;;;;;;;;;31.00;29.00;;;;;7.75;63.34;101375.13;2104159;27;46620;-60
2021/11/12 07:22:06;;;;;;;;;30.25;28.50;;;;;7.75;63.14;101370.75;2100861;27;47104;-61
2021/11/12 07:23:07;;;;;;;;;24.25;23.00;;;;;7.76;63.09;101372.50;2097380;27;47321;-60
2021/11/12 07:24:08;;;;;;;;;26.25;24.50;;;;;7.76;63.12;101367.22;2093096;27;48171;-61
2021/11/12 07:25:08;;;;;;;;;27.00;26.25;;;;;7.77;63.11;101371.63;2089680;28;45730;-61
2021/11/12 07:26:09;;;;;;;;;32.50;28.50;;;;;7.79;62.76;101371.63;2087593;28;47305;-60
2021/11/12 07:27:10;;;;;;;;;28.50;25.50;;;;;7.78;63.00;101370.75;2086957;28;47372;-60
2021/11/12 07:28:11;;;;;;;;;30.00;29.00;;;;;7.78;63.07;101365.47;2091148;28;47431;-60
2021/11/12 07:29:11;;;;;;;;;31.75;27.00;;;;;7.79;62.93;101367.22;2095254;28;48447;-62
2021/11/12 07:30:14;;;;;;;;;34.75;31.25;;;;;7.80;62.96;101357.53;2094616;28;47845;-59
2021/11/12 07:31:16;;;;;;;;;23.40;23.40;;;;;7.81;62.90;101356.66;2087730;27;45205;-60
2021/11/12 07:32:18;;;;;;;;;33.40;27.40;;;;;7.81;63.00;101360.16;2106992;27;46581;-61
2021/11/12 07:33:18;;;;;;;;;32.00;28.80;;;;;7.81;63.16;101354.88;2101636;27;48163;-61
2021/11/12 07:34:19;;;;;;;;;24.00;22.00;;;;;7.82;62.97;101359.28;2092358;28;48286;-62
2021/11/12 07:35:25;;;;;;;;;31.50;27.25;;;;;7.83;63.05;101361.03;2098912;28;47246;-61
2021/11/12 07:36:41;;;;;;;;;21.00;17.60;;;;;7.84;63.12;101354.88;2092556;28;47069;-62
2021/11/12 07:37:42;;;;;;;;;28.20;25.60;;;;;7.84;63.03;101354.88;2094789;27;48234;-60
2021/11/12 07:39:51;;;;;;;;;30.80;30.80;;;;;7.84;62.94;101352.22;2092870;28;47442;-61
2021/11/12 07:46:32;;;;;;;;;37.20;33.60;;;;;7.84;63.31;101351.34;2092167;28;46757;-60
2021/11/12 07:47:34;;;;;;;;;28.20;25.60;;;;;7.84;63.16;101343.44;2086792;28;47657;-61
2021/11/12 07:48:35;;;;;;;;;37.00;33.40;;;;;7.85;63.15;101342.53;2090566;27;47366;-61
2021/11/12 07:49:38;;;;;;;;;35.50;30.50;;;;;7.85;63.08;101339.91;2095086;28;48524;-61
2021/11/12 07:50:39;;;;;;;;;29.00;29.00;;;;;7.85;63.34;101338.13;2090688;28;48447;-61